sensor_id;sensor_type;location;lat;lon;timestamp;P1;durP1;ratioP1;P2;durP2;ratioP2
29044;SDS011;16133;49.486;12.176;2023-04-25T00:00:14;12.35;;;6.85;;
29044;SDS011;16133;49.486;12.176;2023-04-25T00:02:40;15.57;;;7.72;;
29044;SDS011;16133;49.486;12.176;2023-04-25T00:05:06;16.73;;;8.10;;
29044;SDS011;16133;49.486;12.176;2023-04-25T00:07:32;15.82;;;7.55;;
29044;SDS011;16133;49.486;12.176;2023-04-25T00:09:58;13.52;;;7.80;;
29044;SDS011;16133;49.486;12.176;2023-04-25T00:12:24;15.50;;;8.20;;
29044;SDS011;16133;49.486;12.176;2023-04-25T00:14:49;17.17;;;7.82;;
29044;SDS011;16133;49.486;12.176;2023-04-25T00:17:15;13.65;;;6.97;;
29044;SDS011;16133;49.486;12.176;2023-04-25T00:19:41;13.18;;;7.40;;
29044;SDS011;16133;49.486;12.176;2023-04-25T00:22:09;13.02;;;7.30;;
29044;SDS011;16133;49.486;12.176;2023-04-25T00:24:35;12.45;;;7.13;;
29044;SDS011;16133;49.486;12.176;2023-04-25T00:27:00;15.68;;;7.13;;
29044;SDS011;16133;49.486;12.176;2023-04-25T00:29:25;15.00;;;7.80;;
29044;SDS011;16133;49.486;12.176;2023-04-25T00:31:51;14.05;;;7.38;;
29044;SDS011;16133;49.486;12.176;2023-04-25T00:34:16;16.90;;;7.28;;
29044;SDS011;16133;49.486;12.176;2023-04-25T00:36:41;15.80;;;7.78;;
29044;SDS011;16133;49.486;12.176;2023-04-25T00:39:07;14.38;;;7.88;;
29044;SDS011;16133;49.486;12.176;2023-04-25T00:41:32;15.65;;;8.20;;
29044;SDS011;16133;49.486;12.176;2023-04-25T00:43:58;13.38;;;7.50;;
29044;SDS011;16133;49.486;12.176;2023-04-25T00:46:24;12.43;;;7.15;;
29044;SDS011;16133;49.486;12.176;2023-04-25T00:48:49;14.63;;;8.13;;
29044;SDS011;16133;49.486;12.176;2023-04-25T00:51:19;13.38;;;7.10;;
29044;SDS011;16133;49.486;12.176;2023-04-25T00:53:46;13.15;;;7.60;;
29044;SDS011;16133;49.486;12.176;2023-04-25T00:56:13;16.17;;;8.63;;
29044;SDS011;16133;49.486;12.176;2023-04-25T00:58:39;14.57;;;7.47;;
29044;SDS011;16133;49.486;12.176;2023-04-25T01:01:05;16.13;;;7.75;;
29044;SDS011;16133;49.486;12.176;2023-04-25T01:03:32;13.73;;;7.40;;
29044;SDS011;16133;49.486;12.176;2023-04-25T01:06:01;17.25;;;8.57;;
29044;SDS011;16133;49.486;12.176;2023-04-25T01:08:27;17.83;;;8.65;;
29044;SDS011;16133;49.486;12.176;2023-04-25T01:10:53;17.65;;;7.78;;
29044;SDS011;16133;49.486;12.176;2023-04-25T01:13:18;15.00;;;8.05;;
29044;SDS011;16133;49.486;12.176;2023-04-25T01:15:44;15.95;;;8.45;;
29044;SDS011;16133;49.486;12.176;2023-04-25T01:18:10;14.30;;;8.23;;
29044;SDS011;16133;49.486;12.176;2023-04-25T01:20:36;14.25;;;8.20;;
29044;SDS011;16133;49.486;12.176;2023-04-25T01:23:03;19.55;;;7.95;;
29044;SDS011;16133;49.486;12.176;2023-04-25T01:25:30;15.25;;;8.25;;
29044;SDS011;16133;49.486;12.176;2023-04-25T01:27:56;15.18;;;7.95;;
29044;SDS011;16133;49.486;12.176;2023-04-25T01:30:22;15.38;;;7.45;;
29044;SDS011;16133;49.486;12.176;2023-04-25T01:32:48;13.90;;;7.43;;
29044;SDS011;16133;49.486;12.176;2023-04-25T01:35:14;12.98;;;7.20;;
29044;SDS011;16133;49.486;12.176;2023-04-25T01:37:40;13.88;;;7.47;;
29044;SDS011;16133;49.486;12.176;2023-04-25T01:40:09;14.00;;;6.88;;
29044;SDS011;16133;49.486;12.176;2023-04-25T01:42:36;16.27;;;8.00;;
29044;SDS011;16133;49.486;12.176;2023-04-25T01:45:04;13.10;;;6.95;;
29044;SDS011;16133;49.486;12.176;2023-04-25T01:47:29;13.68;;;7.80;;
29044;SDS011;16133;49.486;12.176;2023-04-25T01:49:55;12.45;;;6.68;;
29044;SDS011;16133;49.486;12.176;2023-04-25T01:52:20;12.63;;;6.72;;
29044;SDS011;16133;49.486;12.176;2023-04-25T01:54:46;12.07;;;6.65;;
29044;SDS011;16133;49.486;12.176;2023-04-25T01:57:13;10.57;;;6.50;;
29044;SDS011;16133;49.486;12.176;2023-04-25T01:59:38;12.40;;;6.72;;
29044;SDS011;16133;49.486;12.176;2023-04-25T02:02:04;13.02;;;6.80;;
29044;SDS011;16133;49.486;12.176;2023-04-25T02:04:30;14.88;;;6.85;;
29044;SDS011;16133;49.486;12.176;2023-04-25T02:06:55;14.43;;;7.28;;
29044;SDS011;16133;49.486;12.176;2023-04-25T02:09:21;13.65;;;7.32;;
29044;SDS011;16133;49.486;12.176;2023-04-25T02:11:47;12.20;;;7.03;;
29044;SDS011;16133;49.486;12.176;2023-04-25T02:14:12;13.48;;;7.10;;
29044;SDS011;16133;49.486;12.176;2023-04-25T02:16:38;12.60;;;7.47;;
29044;SDS011;16133;49.486;12.176;2023-04-25T02:19:03;14.32;;;7.57;;
29044;SDS011;16133;49.486;12.176;2023-04-25T02:21:29;17.08;;;7.88;;
29044;SDS011;16133;49.486;12.176;2023-04-25T02:23:55;16.10;;;7.80;;
29044;SDS011;16133;49.486;12.176;2023-04-25T02:26:21;13.65;;;7.68;;
29044;SDS011;16133;49.486;12.176;2023-04-25T02:28:48;12.65;;;7.15;;
29044;SDS011;16133;49.486;12.176;2023-04-25T02:31:14;13.63;;;7.20;;
29044;SDS011;16133;49.486;12.176;2023-04-25T02:33:39;15.60;;;7.97;;
29044;SDS011;16133;49.486;12.176;2023-04-25T02:36:05;17.05;;;7.65;;
29044;SDS011;16133;49.486;12.176;2023-04-25T02:38:30;16.60;;;7.72;;
29044;SDS011;16133;49.486;12.176;2023-04-25T02:40:56;17.15;;;8.35;;
29044;SDS011;16133;49.486;12.176;2023-04-25T02:43:21;14.63;;;7.97;;
29044;SDS011;16133;49.486;12.176;2023-04-25T02:45:47;17.90;;;7.93;;
29044;SDS011;16133;49.486;12.176;2023-04-25T02:48:12;15.90;;;7.80;;
29044;SDS011;16133;49.486;12.176;2023-04-25T02:50:37;15.98;;;7.70;;
29044;SDS011;16133;49.486;12.176;2023-04-25T02:53:02;13.10;;;7.60;;
29044;SDS011;16133;49.486;12.176;2023-04-25T02:55:28;15.63;;;7.88;;
29044;SDS011;16133;49.486;12.176;2023-04-25T02:57:53;15.02;;;7.22;;
29044;SDS011;16133;49.486;12.176;2023-04-25T03:00:20;17.27;;;8.18;;
29044;SDS011;16133;49.486;12.176;2023-04-25T03:02:46;16.92;;;8.10;;
29044;SDS011;16133;49.486;12.176;2023-04-25T03:05:11;17.50;;;8.20;;
29044;SDS011;16133;49.486;12.176;2023-04-25T03:07:36;15.40;;;7.70;;
29044;SDS011;16133;49.486;12.176;2023-04-25T03:10:04;14.75;;;7.70;;
29044;SDS011;16133;49.486;12.176;2023-04-25T03:12:30;17.88;;;8.52;;
29044;SDS011;16133;49.486;12.176;2023-04-25T03:14:56;16.05;;;8.00;;
29044;SDS011;16133;49.486;12.176;2023-04-25T03:17:21;15.23;;;7.75;;
29044;SDS011;16133;49.486;12.176;2023-04-25T03:19:47;17.30;;;7.75;;
29044;SDS011;16133;49.486;12.176;2023-04-25T03:22:12;15.32;;;7.82;;
29044;SDS011;16133;49.486;12.176;2023-04-25T03:24:38;15.85;;;8.32;;
29044;SDS011;16133;49.486;12.176;2023-04-25T03:27:03;13.40;;;7.88;;
29044;SDS011;16133;49.486;12.176;2023-04-25T03:29:28;11.75;;;7.03;;
29044;SDS011;16133;49.486;12.176;2023-04-25T03:31:54;15.95;;;6.85;;
29044;SDS011;16133;49.486;12.176;2023-04-25T03:34:19;15.48;;;6.60;;
29044;SDS011;16133;49.486;12.176;2023-04-25T03:36:46;14.63;;;7.63;;
29044;SDS011;16133;49.486;12.176;2023-04-25T03:39:11;15.45;;;7.65;;
29044;SDS011;16133;49.486;12.176;2023-04-25T03:41:37;13.18;;;7.25;;
29044;SDS011;16133;49.486;12.176;2023-04-25T03:44:02;16.13;;;7.15;;
29044;SDS011;16133;49.486;12.176;2023-04-25T03:46:28;13.35;;;7.22;;
29044;SDS011;16133;49.486;12.176;2023-04-25T03:48:53;12.45;;;6.88;;
29044;SDS011;16133;49.486;12.176;2023-04-25T03:51:18;13.55;;;7.28;;
29044;SDS011;16133;49.486;12.176;2023-04-25T03:53:43;14.23;;;7.00;;
29044;SDS011;16133;49.486;12.176;2023-04-25T03:56:09;13.80;;;7.03;;
29044;SDS011;16133;49.486;12.176;2023-04-25T03:58:34;13.55;;;6.95;;
29044;SDS011;16133;49.486;12.176;2023-04-25T04:00:59;12.20;;;7.20;;
29044;SDS011;16133;49.486;12.176;2023-04-25T04:03:27;18.10;;;7.18;;
29044;SDS011;16133;49.486;12.176;2023-04-25T04:05:53;13.98;;;6.93;;
29044;SDS011;16133;49.486;12.176;2023-04-25T04:08:18;14.25;;;6.85;;
29044;SDS011;16133;49.486;12.176;2023-04-25T04:10:43;14.93;;;7.20;;
29044;SDS011;16133;49.486;12.176;2023-04-25T04:13:09;15.45;;;8.27;;
29044;SDS011;16133;49.486;12.176;2023-04-25T04:15:34;16.25;;;7.88;;
29044;SDS011;16133;49.486;12.176;2023-04-25T04:17:59;16.27;;;7.85;;
29044;SDS011;16133;49.486;12.176;2023-04-25T04:20:27;15.90;;;8.00;;
29044;SDS011;16133;49.486;12.176;2023-04-25T04:22:54;18.05;;;8.90;;
29044;SDS011;16133;49.486;12.176;2023-04-25T04:25:20;19.70;;;9.23;;
29044;SDS011;16133;49.486;12.176;2023-04-25T04:27:45;20.58;;;10.05;;
29044;SDS011;16133;49.486;12.176;2023-04-25T04:30:11;17.25;;;9.10;;
29044;SDS011;16133;49.486;12.176;2023-04-25T04:32:37;19.45;;;10.13;;
29044;SDS011;16133;49.486;12.176;2023-04-25T04:35:03;19.48;;;10.50;;
29044;SDS011;16133;49.486;12.176;2023-04-25T04:37:29;21.42;;;9.75;;
29044;SDS011;16133;49.486;12.176;2023-04-25T04:39:54;15.23;;;7.95;;
29044;SDS011;16133;49.486;12.176;2023-04-25T04:42:20;18.27;;;8.48;;
29044;SDS011;16133;49.486;12.176;2023-04-25T04:44:46;15.98;;;8.20;;
29044;SDS011;16133;49.486;12.176;2023-04-25T04:47:11;19.25;;;8.70;;
29044;SDS011;16133;49.486;12.176;2023-04-25T04:49:38;16.50;;;7.70;;
29044;SDS011;16133;49.486;12.176;2023-04-25T04:52:04;14.00;;;7.78;;
29044;SDS011;16133;49.486;12.176;2023-04-25T04:54:30;15.48;;;7.57;;
29044;SDS011;16133;49.486;12.176;2023-04-25T04:56:55;16.63;;;8.48;;
29044;SDS011;16133;49.486;12.176;2023-04-25T04:59:21;16.67;;;8.18;;
29044;SDS011;16133;49.486;12.176;2023-04-25T05:01:46;23.67;;;8.77;;
29044;SDS011;16133;49.486;12.176;2023-04-25T05:04:11;16.25;;;7.78;;
29044;SDS011;16133;49.486;12.176;2023-04-25T05:06:37;15.50;;;7.93;;
29044;SDS011;16133;49.486;12.176;2023-04-25T05:09:02;14.25;;;7.35;;
29044;SDS011;16133;49.486;12.176;2023-04-25T05:11:28;14.55;;;7.88;;
29044;SDS011;16133;49.486;12.176;2023-04-25T05:13:53;15.15;;;7.90;;
29044;SDS011;16133;49.486;12.176;2023-04-25T05:16:19;17.75;;;8.50;;
29044;SDS011;16133;49.486;12.176;2023-04-25T05:18:45;15.05;;;7.70;;
29044;SDS011;16133;49.486;12.176;2023-04-25T05:21:11;14.50;;;7.40;;
29044;SDS011;16133;49.486;12.176;2023-04-25T05:23:37;14.23;;;6.97;;
29044;SDS011;16133;49.486;12.176;2023-04-25T05:26:02;9.60;;;5.15;;
29044;SDS011;16133;49.486;12.176;2023-04-25T05:28:28;11.02;;;6.10;;
29044;SDS011;16133;49.486;12.176;2023-04-25T05:30:53;9.73;;;4.78;;
29044;SDS011;16133;49.486;12.176;2023-04-25T05:33:18;9.30;;;5.53;;
29044;SDS011;16133;49.486;12.176;2023-04-25T05:35:44;9.45;;;5.28;;
29044;SDS011;16133;49.486;12.176;2023-04-25T05:38:10;7.32;;;4.75;;
29044;SDS011;16133;49.486;12.176;2023-04-25T05:40:35;9.07;;;5.55;;
29044;SDS011;16133;49.486;12.176;2023-04-25T05:43:00;7.75;;;5.13;;
29044;SDS011;16133;49.486;12.176;2023-04-25T05:45:26;8.45;;;4.70;;
29044;SDS011;16133;49.486;12.176;2023-04-25T05:47:51;7.28;;;4.68;;
29044;SDS011;16133;49.486;12.176;2023-04-25T05:50:17;7.57;;;4.70;;
29044;SDS011;16133;49.486;12.176;2023-04-25T05:52:42;9.20;;;5.35;;
29044;SDS011;16133;49.486;12.176;2023-04-25T05:55:07;8.77;;;5.00;;
29044;SDS011;16133;49.486;12.176;2023-04-25T05:57:33;8.95;;;4.82;;
29044;SDS011;16133;49.486;12.176;2023-04-25T05:59:58;7.50;;;4.63;;
29044;SDS011;16133;49.486;12.176;2023-04-25T06:02:23;8.43;;;4.90;;
29044;SDS011;16133;49.486;12.176;2023-04-25T06:04:49;9.38;;;4.50;;
29044;SDS011;16133;49.486;12.176;2023-04-25T06:07:15;6.40;;;4.13;;
29044;SDS011;16133;49.486;12.176;2023-04-25T06:09:41;6.88;;;4.40;;
29044;SDS011;16133;49.486;12.176;2023-04-25T06:12:06;6.88;;;4.53;;
29044;SDS011;16133;49.486;12.176;2023-04-25T06:14:32;7.72;;;4.47;;
29044;SDS011;16133;49.486;12.176;2023-04-25T06:16:59;6.68;;;4.22;;
29044;SDS011;16133;49.486;12.176;2023-04-25T06:19:31;10.10;;;4.90;;
29044;SDS011;16133;49.486;12.176;2023-04-25T06:21:56;8.60;;;4.38;;
29044;SDS011;16133;49.486;12.176;2023-04-25T06:24:21;7.25;;;4.55;;
29044;SDS011;16133;49.486;12.176;2023-04-25T06:26:47;7.00;;;4.55;;
29044;SDS011;16133;49.486;12.176;2023-04-25T06:29:12;8.25;;;5.13;;
29044;SDS011;16133;49.486;12.176;2023-04-25T06:31:37;6.28;;;4.05;;
29044;SDS011;16133;49.486;12.176;2023-04-25T06:34:03;9.55;;;5.38;;
29044;SDS011;16133;49.486;12.176;2023-04-25T06:36:28;15.52;;;5.82;;
29044;SDS011;16133;49.486;12.176;2023-04-25T06:38:53;7.15;;;4.20;;
29044;SDS011;16133;49.486;12.176;2023-04-25T06:41:19;10.55;;;4.50;;
29044;SDS011;16133;49.486;12.176;2023-04-25T06:43:45;9.88;;;4.97;;
29044;SDS011;16133;49.486;12.176;2023-04-25T06:46:10;10.27;;;6.13;;
29044;SDS011;16133;49.486;12.176;2023-04-25T06:48:36;12.63;;;5.93;;
29044;SDS011;16133;49.486;12.176;2023-04-25T06:51:01;8.20;;;4.78;;
29044;SDS011;16133;49.486;12.176;2023-04-25T06:53:26;9.18;;;5.47;;
29044;SDS011;16133;49.486;12.176;2023-04-25T06:55:52;8.55;;;4.80;;
29044;SDS011;16133;49.486;12.176;2023-04-25T06:58:17;6.30;;;3.80;;
29044;SDS011;16133;49.486;12.176;2023-04-25T07:00:43;7.22;;;4.13;;
29044;SDS011;16133;49.486;12.176;2023-04-25T07:03:08;5.15;;;3.35;;
29044;SDS011;16133;49.486;12.176;2023-04-25T07:05:34;6.80;;;3.72;;
29044;SDS011;16133;49.486;12.176;2023-04-25T07:07:59;5.70;;;3.72;;
29044;SDS011;16133;49.486;12.176;2023-04-25T07:10:25;3.55;;;2.92;;
29044;SDS011;16133;49.486;12.176;2023-04-25T07:12:50;4.05;;;3.15;;
29044;SDS011;16133;49.486;12.176;2023-04-25T07:15:16;5.05;;;3.25;;
29044;SDS011;16133;49.486;12.176;2023-04-25T07:17:41;6.40;;;3.22;;
29044;SDS011;16133;49.486;12.176;2023-04-25T07:20:07;5.53;;;3.00;;
29044;SDS011;16133;49.486;12.176;2023-04-25T07:22:34;7.18;;;3.38;;
29044;SDS011;16133;49.486;12.176;2023-04-25T08:45:44;3.78;;;2.40;;
29044;SDS011;16133;49.486;12.176;2023-04-25T08:48:11;3.20;;;2.20;;
29044;SDS011;16133;49.486;12.176;2023-04-25T08:50:56;2.88;;;2.00;;
29044;SDS011;16133;49.486;12.176;2023-04-25T08:53:27;5.35;;;2.50;;
29044;SDS011;16133;49.486;12.176;2023-04-25T08:55:54;3.53;;;2.33;;
29044;SDS011;16133;49.486;12.176;2023-04-25T08:58:21;3.83;;;2.47;;
29044;SDS011;16133;49.486;12.176;2023-04-25T09:00:47;4.65;;;2.42;;
29044;SDS011;16133;49.486;12.176;2023-04-25T09:03:13;3.97;;;2.30;;
29044;SDS011;16133;49.486;12.176;2023-04-25T09:05:40;4.75;;;2.15;;
29044;SDS011;16133;49.486;12.176;2023-04-25T09:08:05;2.85;;;1.98;;
29044;SDS011;16133;49.486;12.176;2023-04-25T09:10:31;3.30;;;2.08;;
29044;SDS011;16133;49.486;12.176;2023-04-25T09:13:10;3.50;;;2.13;;
29044;SDS011;16133;49.486;12.176;2023-04-25T09:15:50;3.45;;;1.88;;
29044;SDS011;16133;49.486;12.176;2023-04-25T09:20:55;4.18;;;1.95;;
29044;SDS011;16133;49.486;12.176;2023-04-25T09:23:23;2.78;;;2.08;;
29044;SDS011;16133;49.486;12.176;2023-04-25T09:25:49;3.30;;;2.30;;
29044;SDS011;16133;49.486;12.176;2023-04-25T09:28:22;4.63;;;2.42;;
29044;SDS011;16133;49.486;12.176;2023-04-25T09:30:56;4.68;;;2.95;;
29044;SDS011;16133;49.486;12.176;2023-04-25T09:33:32;4.25;;;2.70;;
29044;SDS011;16133;49.486;12.176;2023-04-25T09:36:04;4.22;;;2.47;;
29044;SDS011;16133;49.486;12.176;2023-04-25T09:38:33;2.85;;;2.25;;
29044;SDS011;16133;49.486;12.176;2023-04-25T09:41:06;6.22;;;2.60;;
29044;SDS011;16133;49.486;12.176;2023-04-25T09:43:32;3.67;;;2.42;;
29044;SDS011;16133;49.486;12.176;2023-04-25T09:45:57;6.18;;;1.95;;
29044;SDS011;16133;49.486;12.176;2023-04-25T09:48:24;4.18;;;2.97;;
29044;SDS011;16133;49.486;12.176;2023-04-25T09:51:11;4.28;;;2.30;;
29044;SDS011;16133;49.486;12.176;2023-04-25T09:53:39;4.50;;;2.63;;
29044;SDS011;16133;49.486;12.176;2023-04-25T09:56:07;3.75;;;2.33;;
29044;SDS011;16133;49.486;12.176;2023-04-25T09:58:35;3.75;;;2.35;;
29044;SDS011;16133;49.486;12.176;2023-04-25T10:01:02;4.80;;;3.03;;
29044;SDS011;16133;49.486;12.176;2023-04-25T10:03:30;3.25;;;2.05;;
29044;SDS011;16133;49.486;12.176;2023-04-25T10:06:01;3.78;;;2.65;;
29044;SDS011;16133;49.486;12.176;2023-04-25T10:08:32;6.55;;;1.88;;
29044;SDS011;16133;49.486;12.176;2023-04-25T10:11:01;3.97;;;2.78;;
29044;SDS011;16133;49.486;12.176;2023-04-25T10:13:32;3.60;;;2.20;;
29044;SDS011;16133;49.486;12.176;2023-04-25T10:15:59;5.80;;;2.25;;
29044;SDS011;16133;49.486;12.176;2023-04-25T10:18:27;3.83;;;2.40;;
29044;SDS011;16133;49.486;12.176;2023-04-25T10:21:04;4.72;;;3.08;;
29044;SDS011;16133;49.486;12.176;2023-04-25T10:23:31;5.55;;;3.00;;
29044;SDS011;16133;49.486;12.176;2023-04-25T10:25:57;5.90;;;3.70;;
29044;SDS011;16133;49.486;12.176;2023-04-25T10:28:23;5.43;;;2.83;;
29044;SDS011;16133;49.486;12.176;2023-04-25T10:36:14;5.90;;;4.40;;
29044;SDS011;16133;49.486;12.176;2023-04-25T10:38:43;4.25;;;3.10;;
29044;SDS011;16133;49.486;12.176;2023-04-25T10:41:10;3.95;;;2.88;;
29044;SDS011;16133;49.486;12.176;2023-04-25T10:43:41;8.43;;;3.85;;
29044;SDS011;16133;49.486;12.176;2023-04-25T10:46:16;7.10;;;4.32;;
29044;SDS011;16133;49.486;12.176;2023-04-25T10:48:57;7.53;;;3.53;;
29044;SDS011;16133;49.486;12.176;2023-04-25T10:51:25;5.43;;;3.95;;
29044;SDS011;16133;49.486;12.176;2023-04-25T10:56:22;7.90;;;4.45;;
29044;SDS011;16133;49.486;12.176;2023-04-25T10:58:50;8.60;;;4.28;;
29044;SDS011;16133;49.486;12.176;2023-04-25T11:01:19;5.85;;;3.22;;
29044;SDS011;16133;49.486;12.176;2023-04-25T11:03:46;10.52;;;3.70;;
29044;SDS011;16133;49.486;12.176;2023-04-25T11:06:19;6.28;;;3.53;;
29044;SDS011;16133;49.486;12.176;2023-04-25T11:08:48;5.90;;;2.97;;
29044;SDS011;16133;49.486;12.176;2023-04-25T11:11:16;5.25;;;3.45;;
29044;SDS011;16133;49.486;12.176;2023-04-25T11:13:51;7.40;;;3.38;;
29044;SDS011;16133;49.486;12.176;2023-04-25T11:16:17;6.10;;;3.00;;
29044;SDS011;16133;49.486;12.176;2023-04-25T11:18:43;6.00;;;3.03;;
29044;SDS011;16133;49.486;12.176;2023-04-25T11:21:09;6.28;;;2.97;;
29044;SDS011;16133;49.486;12.176;2023-04-25T11:23:35;5.35;;;3.13;;
29044;SDS011;16133;49.486;12.176;2023-04-25T11:26:02;4.05;;;2.40;;
29044;SDS011;16133;49.486;12.176;2023-04-25T11:28:28;4.57;;;2.97;;
29044;SDS011;16133;49.486;12.176;2023-04-25T11:30:53;5.22;;;3.35;;
29044;SDS011;16133;49.486;12.176;2023-04-25T11:33:22;8.07;;;3.20;;
29044;SDS011;16133;49.486;12.176;2023-04-25T11:35:48;7.43;;;2.85;;
29044;SDS011;16133;49.486;12.176;2023-04-25T11:38:14;4.15;;;2.30;;
29044;SDS011;16133;49.486;12.176;2023-04-25T11:40:40;4.70;;;2.97;;
29044;SDS011;16133;49.486;12.176;2023-04-25T11:43:06;3.63;;;2.42;;
29044;SDS011;16133;49.486;12.176;2023-04-25T11:45:32;4.15;;;2.15;;
29044;SDS011;16133;49.486;12.176;2023-04-25T11:47:57;5.22;;;2.70;;
29044;SDS011;16133;49.486;12.176;2023-04-25T11:50:23;4.10;;;2.85;;
29044;SDS011;16133;49.486;12.176;2023-04-25T11:52:48;3.72;;;2.30;;
29044;SDS011;16133;49.486;12.176;2023-04-25T11:55:16;3.13;;;2.20;;
29044;SDS011;16133;49.486;12.176;2023-04-25T11:57:43;4.95;;;2.78;;
29044;SDS011;16133;49.486;12.176;2023-04-25T12:02:40;4.90;;;2.67;;
29044;SDS011;16133;49.486;12.176;2023-04-25T12:05:10;3.53;;;1.80;;
29044;SDS011;16133;49.486;12.176;2023-04-25T12:07:36;4.90;;;2.42;;
29044;SDS011;16133;49.486;12.176;2023-04-25T12:10:06;4.38;;;2.00;;
29044;SDS011;16133;49.486;12.176;2023-04-25T12:12:33;3.67;;;2.38;;
29044;SDS011;16133;49.486;12.176;2023-04-25T12:15:35;3.65;;;2.63;;
29044;SDS011;16133;49.486;12.176;2023-04-25T12:17:54;4.68;;;2.50;;
29044;SDS011;16133;49.486;12.176;2023-04-25T12:20:25;2.53;;;1.80;;
29044;SDS011;16133;49.486;12.176;2023-04-25T12:22:51;3.58;;;2.20;;
29044;SDS011;16133;49.486;12.176;2023-04-25T12:28:09;2.75;;;1.60;;
29044;SDS011;16133;49.486;12.176;2023-04-25T12:30:59;3.05;;;1.88;;
29044;SDS011;16133;49.486;12.176;2023-04-25T12:33:35;2.55;;;1.63;;
29044;SDS011;16133;49.486;12.176;2023-04-25T12:36:05;3.33;;;1.98;;
29044;SDS011;16133;49.486;12.176;2023-04-25T12:41:02;2.42;;;1.67;;
29044;SDS011;16133;49.486;12.176;2023-04-25T12:43:27;1.52;;;1.40;;
29044;SDS011;16133;49.486;12.176;2023-04-25T12:45:53;3.17;;;1.83;;
29044;SDS011;16133;49.486;12.176;2023-04-25T12:48:20;3.40;;;1.65;;
29044;SDS011;16133;49.486;12.176;2023-04-25T12:50:46;2.33;;;1.38;;
29044;SDS011;16133;49.486;12.176;2023-04-25T12:53:16;4.65;;;1.88;;
29044;SDS011;16133;49.486;12.176;2023-04-25T12:55:42;2.65;;;1.38;;
29044;SDS011;16133;49.486;12.176;2023-04-25T12:58:08;5.22;;;1.50;;
29044;SDS011;16133;49.486;12.176;2023-04-25T13:00:33;3.03;;;1.27;;
29044;SDS011;16133;49.486;12.176;2023-04-25T13:02:59;3.28;;;1.55;;
29044;SDS011;16133;49.486;12.176;2023-04-25T13:05:25;2.65;;;1.30;;
29044;SDS011;16133;49.486;12.176;2023-04-25T13:07:50;2.08;;;1.27;;
29044;SDS011;16133;49.486;12.176;2023-04-25T13:10:16;1.90;;;1.38;;
29044;SDS011;16133;49.486;12.176;2023-04-25T13:12:42;2.35;;;1.38;;
29044;SDS011;16133;49.486;12.176;2023-04-25T13:15:08;2.97;;;1.02;;
29044;SDS011;16133;49.486;12.176;2023-04-25T13:17:36;1.27;;;1.00;;
29044;SDS011;16133;49.486;12.176;2023-04-25T13:20:02;2.72;;;1.27;;
29044;SDS011;16133;49.486;12.176;2023-04-25T13:22:30;3.00;;;1.20;;
29044;SDS011;16133;49.486;12.176;2023-04-25T13:24:56;1.65;;;1.17;;
29044;SDS011;16133;49.486;12.176;2023-04-25T13:27:21;2.35;;;1.17;;
29044;SDS011;16133;49.486;12.176;2023-04-25T13:29:46;0.93;;;0.68;;
29044;SDS011;16133;49.486;12.176;2023-04-25T13:32:12;0.93;;;0.68;;
29044;SDS011;16133;49.486;12.176;2023-04-25T13:34:37;1.20;;;0.85;;
29044;SDS011;16133;49.486;12.176;2023-04-25T13:37:03;6.82;;;2.67;;
29044;SDS011;16133;49.486;12.176;2023-04-25T13:39:28;1.05;;;0.88;;
29044;SDS011;16133;49.486;12.176;2023-04-25T13:41:53;2.15;;;1.20;;
29044;SDS011;16133;49.486;12.176;2023-04-25T13:44:19;1.05;;;0.65;;
29044;SDS011;16133;49.486;12.176;2023-04-25T13:46:44;0.90;;;0.60;;
29044;SDS011;16133;49.486;12.176;2023-04-25T13:49:11;2.67;;;0.70;;
29044;SDS011;16133;49.486;12.176;2023-04-25T13:51:37;2.22;;;0.80;;
29044;SDS011;16133;49.486;12.176;2023-04-25T13:54:02;5.85;;;0.85;;
29044;SDS011;16133;49.486;12.176;2023-04-25T13:56:27;2.15;;;0.90;;
29044;SDS011;16133;49.486;12.176;2023-04-25T13:58:53;2.35;;;0.63;;
29044;SDS011;16133;49.486;12.176;2023-04-25T14:01:18;1.30;;;0.70;;
29044;SDS011;16133;49.486;12.176;2023-04-25T14:03:45;1.20;;;0.80;;
29044;SDS011;16133;49.486;12.176;2023-04-25T14:06:11;1.33;;;1.10;;
29044;SDS011;16133;49.486;12.176;2023-04-25T14:08:37;9.13;;;2.03;;
29044;SDS011;16133;49.486;12.176;2023-04-25T14:11:03;1.73;;;1.00;;
29044;SDS011;16133;49.486;12.176;2023-04-25T14:13:28;4.57;;;1.05;;
29044;SDS011;16133;49.486;12.176;2023-04-25T14:15:54;1.10;;;0.90;;
29044;SDS011;16133;49.486;12.176;2023-04-25T14:18:19;1.25;;;1.05;;
29044;SDS011;16133;49.486;12.176;2023-04-25T14:20:45;0.95;;;0.82;;
29044;SDS011;16133;49.486;12.176;2023-04-25T14:23:11;1.80;;;0.75;;
29044;SDS011;16133;49.486;12.176;2023-04-25T14:25:36;1.85;;;0.90;;
29044;SDS011;16133;49.486;12.176;2023-04-25T14:28:02;2.65;;;1.00;;
29044;SDS011;16133;49.486;12.176;2023-04-25T14:30:27;0.73;;;0.70;;
29044;SDS011;16133;49.486;12.176;2023-04-25T14:32:53;1.48;;;0.80;;
29044;SDS011;16133;49.486;12.176;2023-04-25T14:35:19;1.50;;;0.73;;
29044;SDS011;16133;49.486;12.176;2023-04-25T14:37:44;2.17;;;0.80;;
29044;SDS011;16133;49.486;12.176;2023-04-25T14:40:10;0.70;;;0.70;;
29044;SDS011;16133;49.486;12.176;2023-04-25T14:42:37;1.02;;;0.80;;
29044;SDS011;16133;49.486;12.176;2023-04-25T14:45:04;1.33;;;0.93;;
29044;SDS011;16133;49.486;12.176;2023-04-25T14:47:32;2.45;;;0.90;;
29044;SDS011;16133;49.486;12.176;2023-04-25T14:49:57;1.88;;;1.00;;
29044;SDS011;16133;49.486;12.176;2023-04-25T14:52:23;1.45;;;1.02;;
29044;SDS011;16133;49.486;12.176;2023-04-25T14:54:48;2.10;;;1.02;;
29044;SDS011;16133;49.486;12.176;2023-04-25T14:57:14;1.42;;;0.90;;
29044;SDS011;16133;49.486;12.176;2023-04-25T14:59:40;4.32;;;1.13;;
29044;SDS011;16133;49.486;12.176;2023-04-25T15:02:06;2.45;;;0.98;;
29044;SDS011;16133;49.486;12.176;2023-04-25T15:04:31;1.35;;;1.00;;
29044;SDS011;16133;49.486;12.176;2023-04-25T15:06:57;2.38;;;1.10;;
29044;SDS011;16133;49.486;12.176;2023-04-25T15:09:22;1.38;;;0.73;;
29044;SDS011;16133;49.486;12.176;2023-04-25T15:11:49;1.90;;;1.23;;
29044;SDS011;16133;49.486;12.176;2023-04-25T15:14:14;2.45;;;1.20;;
29044;SDS011;16133;49.486;12.176;2023-04-25T15:16:40;1.48;;;1.00;;
29044;SDS011;16133;49.486;12.176;2023-04-25T15:19:06;2.80;;;1.02;;
29044;SDS011;16133;49.486;12.176;2023-04-25T15:21:33;1.80;;;1.05;;
29044;SDS011;16133;49.486;12.176;2023-04-25T15:23:58;3.50;;;1.20;;
29044;SDS011;16133;49.486;12.176;2023-04-25T15:26:23;2.78;;;1.30;;
29044;SDS011;16133;49.486;12.176;2023-04-25T15:28:49;2.63;;;1.23;;
29044;SDS011;16133;49.486;12.176;2023-04-25T15:31:14;1.60;;;1.00;;
29044;SDS011;16133;49.486;12.176;2023-04-25T15:33:39;6.45;;;3.72;;
29044;SDS011;16133;49.486;12.176;2023-04-25T15:36:05;1.75;;;1.48;;
29044;SDS011;16133;49.486;12.176;2023-04-25T15:38:31;1.27;;;1.10;;
29044;SDS011;16133;49.486;12.176;2023-04-25T15:40:56;3.83;;;2.17;;
29044;SDS011;16133;49.486;12.176;2023-04-25T15:43:22;2.13;;;1.92;;
29044;SDS011;16133;49.486;12.176;2023-04-25T15:45:47;3.83;;;2.10;;
29044;SDS011;16133;49.486;12.176;2023-04-25T15:48:13;3.85;;;1.70;;
29044;SDS011;16133;49.486;12.176;2023-04-25T15:50:38;5.82;;;1.92;;
29044;SDS011;16133;49.486;12.176;2023-04-25T15:53:05;2.75;;;1.38;;
29044;SDS011;16133;49.486;12.176;2023-04-25T15:55:31;4.20;;;2.53;;
29044;SDS011;16133;49.486;12.176;2023-04-25T15:57:56;4.35;;;2.38;;
29044;SDS011;16133;49.486;12.176;2023-04-25T16:00:21;3.65;;;2.15;;
29044;SDS011;16133;49.486;12.176;2023-04-25T16:02:47;6.00;;;2.38;;